Time;durP1;ratioP1;P1;durP2;ratioP2;P2;SDS_P1;SDS_P2;PMS_P1;PMS_P2;Temp;Humidity;BMP_temperature;BMP_pressure;BME280_temperature;BME280_humidity;BME280_pressure;Samples;Min_cycle;Max_cycle;Signal;HPM_P1;HPM_P2
2022/10/27 00:01:59;;;;;;;6.10;4.50;;;12.80;99.90;;;;;;5059093;28;20549;-79
2022/10/27 00:04:25;;;;;;;12.65;4.75;;;12.80;99.90;;;;;;5053218;28;20386;-79
2022/10/27 00:06:50;;;;;;;5.50;4.20;;;12.80;99.90;;;;;;5050896;28;20075;-80
2022/10/27 00:09:16;;;;;;;6.75;3.72;;;12.80;99.90;;;;;;5044378;28;20053;-80
2022/10/27 00:11:42;;;;;;;6.05;3.58;;;12.70;99.90;;;;;;5053024;28;20109;-80
2022/10/27 00:14:07;;;;;;;4.85;3.88;;;12.70;99.90;;;;;;5046587;28;20055;-80
2022/10/27 00:16:33;;;;;;;6.53;4.13;;;12.80;99.90;;;;;;5049301;28;20051;-77
2022/10/27 00:19:00;;;;;;;5.57;4.03;;;12.70;99.90;;;;;;5053214;28;20104;-79
2022/10/27 00:21:26;;;;;;;6.88;4.43;;;12.70;99.90;;;;;;5044590;28;20132;-80
2022/10/27 00:23:52;;;;;;;6.45;3.85;;;12.70;99.90;;;;;;5053986;28;20045;-80
2022/10/27 00:26:20;;;;;;;6.05;3.30;;;12.70;99.90;;;;;;5046727;28;20056;-80
2022/10/27 00:28:47;;;;;;;10.23;5.57;;;12.70;99.90;;;;;;5058223;28;20313;-79
2022/10/27 00:31:15;;;;;;;6.45;4.00;;;12.70;99.90;;;;;;5049129;28;20481;-79
2022/10/27 00:33:42;;;;;;;7.25;4.35;;;12.70;99.90;;;;;;5041799;28;20048;-79
2022/10/27 00:36:11;;;;;;;9.30;4.18;;;12.70;99.90;;;;;;5043084;28;20045;-80
2022/10/27 00:38:39;;;;;;;6.45;4.82;;;12.60;99.90;;;;;;5051666;28;20674;-79
2022/10/27 00:41:07;;;;;;;8.15;4.82;;;12.60;99.90;;;;;;5050788;28;20774;-79
2022/10/27 00:43:38;;;;;;;6.88;5.28;;;12.60;99.90;;;;;;5045001;28;20040;-79
2022/10/27 00:46:18;;;;;;;7.65;4.13;;;12.60;99.90;;;;;;5051169;28;20048;-78
2022/10/27 00:48:46;;;;;;;9.32;4.43;;;12.60;99.90;;;;;;5046812;28;20168;-78
2022/10/27 00:51:16;;;;;;;7.68;5.47;;;12.60;99.90;;;;;;5049327;28;20048;-79
2022/10/27 00:53:42;;;;;;;7.95;5.35;;;12.60;99.90;;;;;;5055750;28;20079;-78
2022/10/27 00:56:09;;;;;;;7.55;4.97;;;12.50;99.90;;;;;;5050409;28;20055;-79
2022/10/27 00:58:35;;;;;;;8.75;4.70;;;12.50;99.90;;;;;;5055211;28;20048;-79
2022/10/27 01:01:01;;;;;;;7.82;4.97;;;12.60;99.90;;;;;;5056937;28;20052;-79
2022/10/27 01:03:27;;;;;;;7.47;5.10;;;12.50;99.90;;;;;;5055608;28;20128;-79
2022/10/27 01:05:54;;;;;;;11.90;5.20;;;12.50;99.90;;;;;;5052062;28;20056;-79
2022/10/27 01:08:25;;;;;;;10.70;5.57;;;12.50;99.90;;;;;;5054361;28;20048;-78
2022/10/27 01:10:52;;;;;;;8.25;4.82;;;12.50;99.90;;;;;;5048278;28;20049;-79
2022/10/27 01:13:18;;;;;;;8.98;5.75;;;12.50;99.90;;;;;;5046416;28;20067;-79
2022/10/27 01:16:00;;;;;;;12.55;5.57;;;12.50;99.90;;;;;;5051051;28;20048;-78
2022/10/27 01:18:34;;;;;;;10.50;6.10;;;12.50;99.90;;;;;;5050938;28;20052;-78
2022/10/27 01:21:11;;;;;;;9.15;6.18;;;12.50;99.90;;;;;;5055702;28;20044;-79
2022/10/27 01:23:49;;;;;;;10.00;5.65;;;12.50;99.90;;;;;;5051775;28;20098;-79
2022/10/27 01:26:42;;;;;;;8.40;5.35;;;12.80;99.90;;;;;;5051320;28;20256;-78
2022/10/27 01:29:42;;;;;;;9.02;5.70;;;12.50;99.90;;;;;;5051107;28;20056;-79
2022/10/27 01:32:26;;;;;;;8.85;6.47;;;12.60;99.90;;;;;;5040177;28;20048;-79
2022/10/27 01:34:56;;;;;;;8.85;7.28;;;12.60;99.90;;;;;;5044576;28;20119;-78
2022/10/27 01:37:44;;;;;;;10.10;6.93;;;12.60;99.90;;;;;;5049627;28;20053;-79
2022/10/27 01:40:24;;;;;;;11.57;7.03;;;12.70;99.90;;;;;;5057448;28;20132;-78
2022/10/27 01:42:58;;;;;;;13.95;8.05;;;12.80;99.90;;;;;;5053767;28;20044;-78
2022/10/27 01:45:28;;;;;;;10.35;6.97;;;12.90;99.90;;;;;;5048028;28;20040;-78
2022/10/27 01:47:55;;;;;;;7.63;6.93;;;13.00;99.90;;;;;;5047844;28;20695;-78
2022/10/27 01:50:28;;;;;;;8.45;6.85;;;13.00;99.90;;;;;;5038710;28;20060;-78
2022/10/27 01:52:54;;;;;;;;;;;13.10;99.90;;;;;;5042843;28;20045;-78
2022/10/27 01:55:28;;;;;;;11.18;8.10;;;13.00;99.90;;;;;;5051623;28;20285;-78
2022/10/27 01:58:05;;;;;;;19.70;8.13;;;13.10;99.90;;;;;;5052507;28;20080;-78
2022/10/27 02:00:38;;;;;;;11.57;7.45;;;13.10;99.90;;;;;;5042821;28;20576;-78
2022/10/27 02:03:11;;;;;;;9.98;6.95;;;13.10;99.90;;;;;;5041288;28;20060;-78
2022/10/27 02:05:50;;;;;;;11.40;7.70;;;13.20;99.90;;;;;;5039255;28;20386;-78
2022/10/27 02:08:29;;;;;;;16.25;7.53;;;13.20;99.90;;;;;;5049159;28;20061;-78
2022/10/27 02:11:02;;;;;;;12.23;7.03;;;13.20;99.90;;;;;;5049949;28;20048;-78
2022/10/27 02:13:29;;;;;;;10.68;8.38;;;13.30;99.90;;;;;;5038558;28;20057;-78
2022/10/27 02:16:02;;;;;;;17.92;7.45;;;13.20;99.90;;;;;;5049516;28;20112;-78
2022/10/27 02:18:31;;;;;;;7.75;6.70;;;13.20;99.90;;;;;;5041695;28;20094;-79
2022/10/27 02:21:03;;;;;;;8.63;7.20;;;13.20;99.90;;;;;;5047864;28;20083;-79
2022/10/27 02:23:29;;;;;;;11.32;7.97;;;13.20;99.90;;;;;;5043597;28;20048;-79
2022/10/27 02:26:03;;;;;;;11.52;6.57;;;13.20;99.90;;;;;;5049714;28;20072;-79
2022/10/27 02:28:38;;;;;;;9.80;7.47;;;13.20;99.90;;;;;;5056482;28;20044;-79
2022/10/27 02:31:06;;;;;;;10.13;6.85;;;13.20;99.90;;;;;;5050373;28;20048;-79
2022/10/27 02:33:32;;;;;;;8.80;6.60;;;13.10;99.90;;;;;;5045420;28;20080;-78
2022/10/27 02:35:58;;;;;;;11.85;7.18;;;13.10;99.90;;;;;;5049035;28;20520;-78
2022/10/27 02:38:23;;;;;;;9.13;7.00;;;13.10;99.90;;;;;;5040063;28;20067;-78
2022/10/27 02:40:49;;;;;;;9.65;6.88;;;13.00;99.90;;;;;;5040290;28;20052;-78
2022/10/27 02:43:15;;;;;;;9.45;7.68;;;13.10;99.90;;;;;;5051297;28;20048;-79
2022/10/27 02:45:41;;;;;;;8.77;6.03;;;13.00;99.90;;;;;;5054160;28;20048;-78
2022/10/27 02:48:06;;;;;;;10.63;6.28;;;13.00;99.90;;;;;;5049530;28;20092;-78
2022/10/27 02:50:32;;;;;;;7.43;5.50;;;13.00;99.90;;;;;;5044128;28;20049;-78
2022/10/27 02:52:58;;;;;;;10.07;7.07;;;12.90;99.90;;;;;;5039481;28;20150;-79
2022/10/27 02:55:23;;;;;;;5.97;5.38;;;12.90;99.90;;;;;;5044797;28;20040;-78
2022/10/27 02:57:49;;;;;;;10.63;6.97;;;12.90;99.90;;;;;;5046380;28;20046;-78
2022/10/27 03:00:15;;;;;;;7.78;6.30;;;12.80;99.90;;;;;;5050082;28;20052;-78
2022/10/27 03:02:41;;;;;;;9.38;6.97;;;12.80;99.90;;;;;;5047427;28;20055;-79
2022/10/27 03:05:07;;;;;;;11.98;6.90;;;12.80;99.90;;;;;;5055732;28;20056;-79
2022/10/27 03:07:33;;;;;;;7.95;6.40;;;12.90;99.90;;;;;;5061688;28;20041;-78
2022/10/27 03:09:58;;;;;;;10.70;7.00;;;12.80;99.90;;;;;;5044881;28;20840;-79
2022/10/27 03:12:24;;;;;;;8.02;5.88;;;12.80;99.90;;;;;;5047323;28;20485;-78
2022/10/27 03:14:50;;;;;;;9.82;6.72;;;12.80;99.90;;;;;;5059487;28;20606;-78
2022/10/27 03:17:15;;;;;;;14.18;7.05;;;12.80;99.90;;;;;;5051377;28;20044;-79
2022/10/27 03:19:41;;;;;;;9.55;7.30;;;12.70;99.90;;;;;;5045239;28;20060;-79
2022/10/27 03:22:06;;;;;;;9.95;7.18;;;12.80;99.90;;;;;;5047013;28;20119;-79
2022/10/27 03:24:32;;;;;;;13.05;7.43;;;12.80;99.90;;;;;;5045282;28;20053;-79
2022/10/27 03:26:58;;;;;;;11.10;7.68;;;12.80;99.90;;;;;;5050981;28;20040;-79
2022/10/27 03:29:24;;;;;;;11.43;7.25;;;12.90;99.90;;;;;;5043486;28;20049;-78
2022/10/27 03:31:49;;;;;;;9.55;6.95;;;12.90;99.90;;;;;;5052338;28;20052;-79
2022/10/27 03:34:15;;;;;;;11.05;7.45;;;12.90;99.90;;;;;;5051849;28;20084;-78
2022/10/27 03:36:41;;;;;;;10.43;8.55;;;13.00;99.90;;;;;;5056431;28;20050;-79
2022/10/27 03:39:07;;;;;;;10.45;8.38;;;12.90;99.90;;;;;;5056627;28;20057;-78
2022/10/27 03:41:32;;;;;;;9.05;6.80;;;13.00;99.90;;;;;;5043076;28;20052;-78
2022/10/27 03:43:58;;;;;;;10.32;7.82;;;12.90;99.90;;;;;;5055728;28;20045;-78
2022/10/27 03:46:24;;;;;;;13.30;8.10;;;12.90;99.90;;;;;;5045843;28;20049;-79
2022/10/27 03:48:49;;;;;;;9.57;5.82;;;13.00;99.90;;;;;;5054722;28;20059;-78
2022/10/27 03:51:15;;;;;;;11.88;7.47;;;13.00;99.90;;;;;;5051114;28;20083;-78
2022/10/27 03:53:41;;;;;;;15.18;8.10;;;12.90;99.90;;;;;;5056054;28;20048;-79
2022/10/27 03:56:07;;;;;;;12.65;8.20;;;13.00;99.90;;;;;;5055283;28;20067;-78
2022/10/27 03:58:33;;;;;;;11.43;7.50;;;13.00;99.90;;;;;;5057827;28;20083;-78
2022/10/27 04:01:04;;;;;;;10.60;7.18;;;13.00;99.90;;;;;;5057825;28;20810;-79
2022/10/27 04:03:30;;;;;;;12.10;8.45;;;13.00;99.90;;;;;;5049321;28;20132;-79
2022/10/27 04:05:55;;;;;;;11.55;7.70;;;13.00;99.90;;;;;;5059438;28;20047;-78
2022/10/27 04:08:21;;;;;;;14.60;8.85;;;13.10;99.90;;;;;;5057204;28;20649;-79
2022/10/27 04:10:47;;;;;;;20.02;7.65;;;13.10;99.90;;;;;;5059527;28;20045;-79
2022/10/27 04:13:13;;;;;;;11.95;7.55;;;13.00;99.90;;;;;;5055320;28;20070;-78
2022/10/27 04:15:38;;;;;;;12.95;7.68;;;13.10;99.90;;;;;;5039880;28;20079;-79
2022/10/27 04:18:04;;;;;;;8.75;7.25;;;13.10;99.90;;;;;;5039749;28;20052;-78
2022/10/27 04:20:30;;;;;;;9.48;7.55;;;13.10;99.90;;;;;;5053073;28;20118;-78
2022/10/27 04:22:57;;;;;;;9.63;7.75;;;13.20;99.90;;;;;;5058475;28;20051;-78
2022/10/27 04:25:23;;;;;;;9.63;7.25;;;13.20;99.90;;;;;;5059938;28;20042;-78
2022/10/27 04:27:49;;;;;;;9.77;7.40;;;13.20;99.90;;;;;;5022195;28;20052;-79
2022/10/27 04:30:15;;;;;;;11.23;8.43;;;13.20;99.90;;;;;;5054089;28;20056;-78
2022/10/27 04:32:41;;;;;;;11.43;7.38;;;13.20;99.90;;;;;;5054950;28;20063;-79
2022/10/27 04:35:07;;;;;;;8.55;7.22;;;13.20;99.90;;;;;;5054968;28;20128;-78
2022/10/27 04:37:33;;;;;;;14.57;7.97;;;13.20;99.90;;;;;;5055425;28;20036;-79
2022/10/27 04:39:59;;;;;;;15.70;8.05;;;13.30;99.90;;;;;;5058559;28;20110;-79
2022/10/27 04:42:25;;;;;;;11.32;8.73;;;13.20;99.90;;;;;;5045918;28;20485;-78
2022/10/27 04:44:51;;;;;;;10.73;8.25;;;13.30;99.90;;;;;;5057533;28;20133;-77
2022/10/27 04:47:16;;;;;;;13.25;7.78;;;13.20;99.90;;;;;;5057452;28;20059;-80
2022/10/27 04:49:42;;;;;;;9.73;6.90;;;13.20;99.90;;;;;;5056568;28;20489;-78
2022/10/27 04:52:08;;;;;;;10.30;7.50;;;13.20;99.90;;;;;;5052654;28;20049;-78
2022/10/27 04:54:33;;;;;;;15.10;8.75;;;13.30;99.90;;;;;;5055037;28;20076;-78
2022/10/27 04:56:59;;;;;;;12.02;8.60;;;13.20;99.90;;;;;;5055864;28;20040;-79
2022/10/27 04:59:25;;;;;;;16.17;8.10;;;13.20;99.90;;;;;;5054312;28;20044;-80
2022/10/27 05:01:50;;;;;;;12.90;8.63;;;13.20;99.90;;;;;;5046650;28;20045;-79
2022/10/27 05:04:16;;;;;;;12.18;7.68;;;13.20;99.90;;;;;;5054240;28;20044;-79
2022/10/27 05:06:42;;;;;;;11.13;7.70;;;13.30;99.90;;;;;;5056319;28;20044;-79
2022/10/27 05:09:07;;;;;;;9.48;7.88;;;13.20;99.90;;;;;;5057493;28;20068;-79
2022/10/27 05:11:33;;;;;;;11.55;7.90;;;13.20;99.90;;;;;;5049063;28;20075;-79
2022/10/27 05:13:58;;;;;;;10.52;8.05;;;13.20;99.90;;;;;;5053904;28;20078;-79
2022/10/27 05:16:24;;;;;;;12.40;8.13;;;13.20;99.90;;;;;;5050684;28;20037;-78
2022/10/27 05:18:50;;;;;;;15.85;8.73;;;13.20;99.90;;;;;;5046739;28;20085;-80
2022/10/27 05:21:15;;;;;;;11.02;7.90;;;13.20;99.90;;;;;;5051186;28;20143;-78
2022/10/27 05:23:41;;;;;;;12.02;9.25;;;13.20;99.90;;;;;;5052380;28;20056;-78
2022/10/27 05:26:07;;;;;;;12.88;8.20;;;13.20;99.90;;;;;;5050765;28;20044;-78
2022/10/27 05:28:32;;;;;;;13.43;8.48;;;13.20;99.90;;;;;;5050511;28;20055;-78
2022/10/27 05:30:59;;;;;;;13.15;8.23;;;13.20;99.90;;;;;;5054125;28;20047;-79
2022/10/27 05:33:26;;;;;;;13.15;9.32;;;13.30;99.90;;;;;;5050521;28;20111;-79
2022/10/27 05:35:52;;;;;;;13.68;8.93;;;13.30;99.90;;;;;;5050085;28;20086;-79
2022/10/27 05:38:18;;;;;;;13.57;9.32;;;13.30;99.90;;;;;;5052796;28;20563;-78
2022/10/27 05:40:43;;;;;;;16.42;8.40;;;13.30;99.90;;;;;;5052795;28;20844;-77
2022/10/27 05:43:09;;;;;;;9.32;8.10;;;13.30;99.90;;;;;;5044549;28;20097;-78
2022/10/27 05:45:35;;;;;;;13.77;8.63;;;13.30;99.90;;;;;;5044032;28;20900;-79
2022/10/27 05:48:06;;;;;;;14.30;8.82;;;13.30;99.90;;;;;;5047224;28;20056;-79
2022/10/27 05:50:33;;;;;;;12.05;8.68;;;13.30;99.90;;;;;;5044989;28;20440;-78
2022/10/27 05:52:59;;;;;;;16.70;9.80;;;13.30;99.90;;;;;;5052908;28;20048;-78
2022/10/27 05:55:25;;;;;;;13.10;9.13;;;13.30;99.90;;;;;;5069603;28;20045;-79
2022/10/27 05:57:57;;;;;;;13.75;9.20;;;13.40;99.90;;;;;;5043046;28;20063;-79
2022/10/27 06:00:24;;;;;;;16.60;11.25;;;13.30;99.90;;;;;;5053723;28;20824;-78
2022/10/27 06:02:50;;;;;;;11.93;8.40;;;13.30;99.90;;;;;;5055319;28;20059;-79
2022/10/27 06:05:16;;;;;;;12.85;8.70;;;13.30;99.90;;;;;;5048774;28;20072;-78
2022/10/27 06:07:42;;;;;;;12.60;8.52;;;13.40;99.90;;;;;;5044306;28;20507;-80
2022/10/27 06:10:08;;;;;;;15.48;8.93;;;13.30;99.90;;;;;;5055817;28;20117;-79
2022/10/27 06:12:34;;;;;;;13.00;9.35;;;13.30;99.90;;;;;;5066483;28;20464;-74
2022/10/27 06:14:59;;;;;;;12.43;8.73;;;13.30;99.90;;;;;;5040842;28;20040;-78
2022/10/27 06:17:25;;;;;;;14.75;9.38;;;13.40;99.90;;;;;;5043364;28;20086;-79
2022/10/27 06:19:50;;;;;;;14.27;8.18;;;13.30;99.90;;;;;;5052210;28;20080;-78
2022/10/27 06:22:16;;;;;;;8.77;7.88;;;13.30;99.90;;;;;;5055399;28;20110;-79
2022/10/27 06:24:42;;;;;;;15.15;8.40;;;13.40;99.90;;;;;;5052901;28;20048;-78
2022/10/27 06:27:07;;;;;;;21.08;9.05;;;13.50;99.90;;;;;;5052473;28;20087;-79
2022/10/27 06:29:33;;;;;;;12.82;8.38;;;13.50;99.90;;;;;;5052622;28;20060;-78
2022/10/27 06:31:59;;;;;;;11.75;7.70;;;13.50;99.90;;;;;;5039498;28;20048;-78
2022/10/27 06:34:24;;;;;;;11.00;7.78;;;13.50;99.90;;;;;;5047067;28;20485;-79
2022/10/27 06:36:50;;;;;;;15.60;7.30;;;13.50;99.90;;;;;;5051319;28;20040;-80
2022/10/27 06:39:16;;;;;;;11.32;8.45;;;13.50;99.90;;;;;;5049960;28;20044;-78
2022/10/27 06:41:41;;;;;;;8.82;7.13;;;13.50;99.90;;;;;;5051747;28;20051;-79
2022/10/27 06:44:07;;;;;;;15.13;7.53;;;13.60;99.90;;;;;;5038742;28;20056;-78
2022/10/27 06:46:35;;;;;;;8.55;7.55;;;13.60;99.90;;;;;;5038611;28;20183;-79
2022/10/27 06:49:00;;;;;;;12.25;6.90;;;13.70;99.90;;;;;;5055267;28;20149;-78
2022/10/27 06:51:26;;;;;;;11.48;8.27;;;13.60;99.90;;;;;;5057076;28;20135;-78
2022/10/27 06:53:52;;;;;;;11.80;6.95;;;13.60;99.90;;;;;;5044759;28;20067;-81
2022/10/27 06:56:18;;;;;;;8.85;6.93;;;13.70;99.90;;;;;;5052617;28;20504;-79
2022/10/27 06:58:47;;;;;;;12.90;7.10;;;13.70;99.90;;;;;;5043073;28;20045;-78
2022/10/27 07:01:12;;;;;;;10.15;6.10;;;13.70;99.90;;;;;;5039550;28;20766;-79
2022/10/27 07:03:38;;;;;;;9.77;6.10;;;13.80;99.90;;;;;;5051463;28;20053;-81
2022/10/27 07:06:04;;;;;;;13.40;6.93;;;13.80;99.90;;;;;;5043420;28;20097;-79
2022/10/27 07:08:30;;;;;;;12.20;6.80;;;13.90;99.90;;;;;;5039973;28;20686;-78
2022/10/27 07:10:56;;;;;;;7.18;5.75;;;14.00;99.90;;;;;;5048531;28;20126;-79
2022/10/27 07:13:22;;;;;;;12.05;5.93;;;14.00;99.90;;;;;;5038697;28;20056;-79
2022/10/27 07:15:47;;;;;;;9.43;6.07;;;14.00;99.90;;;;;;5037387;28;20068;-79
2022/10/27 07:18:13;;;;;;;11.93;6.35;;;14.10;99.90;;;;;;5047217;28;20044;-80
2022/10/27 07:20:39;;;;;;;11.23;5.72;;;14.10;99.90;;;;;;5053514;28;20082;-79
2022/10/27 07:23:09;;;;;;;9.15;6.63;;;14.20;99.90;;;;;;5047546;28;20051;-79
2022/10/27 07:25:35;;;;;;;10.05;5.15;;;14.20;99.90;;;;;;5052271;28;20366;-78
2022/10/27 07:28:02;;;;;;;8.38;5.38;;;14.30;99.90;;;;;;5039965;28;20106;-79
2022/10/27 07:30:34;;;;;;;8.77;5.38;;;14.40;99.90;;;;;;5052241;28;20061;-87
2022/10/27 07:33:00;;;;;;;9.63;5.75;;;14.40;99.90;;;;;;5053197;28;20045;-80
2022/10/27 07:35:26;;;;;;;9.77;4.97;;;14.40;99.90;;;;;;5049659;28;20063;-80
2022/10/27 07:37:52;;;;;;;14.30;6.20;;;14.50;99.90;;;;;;5038335;28;20053;-81
2022/10/27 07:40:19;;;;;;;8.13;5.80;;;14.60;99.90;;;;;;5049251;28;20063;-82
2022/10/27 07:42:55;;;;;;;7.68;5.82;;;14.60;99.90;;;;;;5045573;28;20615;-80
2022/10/27 07:45:23;;;;;;;9.30;5.22;;;14.60;99.90;;;;;;5045033;28;20159;-81
2022/10/27 07:47:50;;;;;;;8.48;5.65;;;14.70;99.90;;;;;;5046494;28;20148;-80
2022/10/27 07:50:18;;;;;;;8.05;5.18;;;14.70;99.90;;;;;;5049856;28;20095;-81
2022/10/27 07:52:45;;;;;;;7.72;5.65;;;14.80;99.90;;;;;;5038425;28;20044;-80
2022/10/27 07:55:13;;;;;;;8.55;5.90;;;14.80;99.90;;;;;;5042475;28;20254;-81
2022/10/27 07:57:40;;;;;;;8.00;4.90;;;14.90;99.90;;;;;;5039412;28;20835;-81
2022/10/27 08:00:08;;;;;;;9.25;6.15;;;15.00;99.90;;;;;;5052906;28;20148;-82
2022/10/27 08:02:34;;;;;;;5.90;4.70;;;15.00;99.90;;;;;;5043149;28;20075;-79
2022/10/27 08:05:00;;;;;;;7.53;5.03;;;15.00;99.90;;;;;;5048086;28;20132;-82
2022/10/27 08:07:25;;;;;;;6.35;5.07;;;15.10;99.90;;;;;;5051998;28;20049;-83
2022/10/27 08:09:51;;;;;;;11.73;6.22;;;15.20;99.90;;;;;;5042917;28;20052;-82
2022/10/27 08:12:17;;;;;;;13.35;6.30;;;15.20;99.90;;;;;;5041956;28;20053;-82
2022/10/27 08:14:43;;;;;;;14.55;6.10;;;15.30;99.90;;;;;;5046283;28;20054;-81
2022/10/27 08:17:09;;;;;;;19.17;6.80;;;15.40;99.90;;;;;;5049260;28;20048;-85
2022/10/27 08:19:34;;;;;;;6.30;4.85;;;15.40;99.90;;;;;;5050990;28;20118;-82
2022/10/27 08:22:00;;;;;;;7.63;4.85;;;15.60;99.90;;;;;;5066993;28;20044;-82
2022/10/27 08:24:26;;;;;;;6.50;4.88;;;15.60;99.90;;;;;;5051985;28;21145;-80
2022/10/27 08:26:51;;;;;;;7.40;4.55;;;15.70;99.90;;;;;;5060072;28;20521;-82
2022/10/27 08:29:17;;;;;;;7.15;4.82;;;15.70;99.90;;;;;;5069728;28;20765;-84
2022/10/27 08:31:42;;;;;;;11.23;4.90;;;15.70;99.90;;;;;;5043105;28;20103;-82
2022/10/27 08:34:08;;;;;;;10.38;4.82;;;15.70;99.90;;;;;;5054205;28;20079;-82
2022/10/27 08:36:37;;;;;;;5.43;4.22;;;15.70;99.90;;;;;;5044316;28;20053;-82
2022/10/27 08:39:12;;;;;;;7.63;4.90;;;15.80;99.90;;;;;;5051337;28;20063;-81
2022/10/27 08:41:46;;;;;;;4.80;4.25;;;15.80;99.90;;;;;;5052412;28;20044;-85
2022/10/27 08:44:33;;;;;;;6.35;4.45;;;15.80;99.90;;;;;;5040111;28;20063;-83
2022/10/27 08:47:05;;;;;;;6.82;4.78;;;15.90;99.90;;;;;;5042793;28;20048;-82
2022/10/27 08:49:38;;;;;;;6.90;4.32;;;16.00;99.90;;;;;;5051549;28;20128;-81
2022/10/27 08:52:26;;;;;;;11.35;4.78;;;16.10;99.90;;;;;;5054002;28;20122;-82
2022/10/27 08:54:59;;;;;;;7.72;4.50;;;16.20;99.90;;;;;;5042480;28;20076;-81
2022/10/27 08:57:28;;;;;;;7.03;4.72;;;16.40;99.90;;;;;;5053586;28;20122;-81
2022/10/27 08:59:55;;;;;;;7.72;5.38;;;16.50;99.90;;;;;;5057743;28;20120;-84
2022/10/27 09:02:59;;;;;;;9.73;4.70;;;16.60;99.90;;;;;;5051422;28;20055;-84
2022/10/27 09:05:39;;;;;;;4.65;3.90;;;16.80;99.90;;;;;;5048329;28;20057;-81
2022/10/27 09:08:18;;;;;;;8.38;4.18;;;16.80;99.90;;;;;;5047514;28;20056;-85
2022/10/27 09:10:59;;;;;;;8.38;4.40;;;16.90;99.90;;;;;;5041886;28;20037;-80
2022/10/27 09:13:43;;;;;;;5.20;3.80;;;17.00;99.90;;;;;;5041598;28;20083;-80
2022/10/27 09:16:17;;;;;;;5.15;4.05;;;17.00;99.90;;;;;;5052763;28;20102;-80
2022/10/27 09:18:46;;;;;;;6.30;3.63;;;17.10;99.90;;;;;;5044576;28;20472;-80
2022/10/27 09:21:20;;;;;;;4.65;3.97;;;17.20;99.90;;;;;;5052623;28;20080;-79
2022/10/27 09:23:50;;;;;;;6.65;4.35;;;17.30;99.90;;;;;;5042182;28;20048;-84
2022/10/27 09:26:19;;;;;;;9.00;3.95;;;17.30;99.90;;;;;;5043270;28;20496;-83
2022/10/27 09:28:48;;;;;;;8.20;4.70;;;17.30;99.90;;;;;;5051353;28;20161;-80
2022/10/27 09:31:39;;;;;;;6.57;4.28;;;17.30;99.90;;;;;;5052058;28;20759;-83
2022/10/27 09:34:24;;;;;;;6.05;3.47;;;17.40;99.90;;;;;;5057413;28;20061;-83
2022/10/27 09:36:50;;;;;;;9.20;4.80;;;17.40;99.90;;;;;;5047823;28;20054;-83
2022/10/27 09:39:16;;;;;;;7.20;4.40;;;17.60;99.90;;;;;;5043628;28;20049;-84
2022/10/27 09:41:41;;;;;;;7.30;4.68;;;17.70;99.90;;;;;;5052654;28;20129;-84
2022/10/27 09:44:20;;;;;;;6.38;3.55;;;17.80;99.90;;;;;;5009716;28;20498;-86
2022/10/27 09:46:54;;;;;;;11.32;4.32;;;18.00;99.90;;;;;;5041591;28;20130;-82
2022/10/27 09:49:33;;;;;;;9.05;4.65;;;18.10;99.90;;;;;;5042030;28;20052;-82
2022/10/27 09:52:04;;;;;;;9.63;3.90;;;18.10;99.90;;;;;;5044967;28;20059;-82
2022/10/27 09:54:30;;;;;;;9.52;3.83;;;18.20;99.90;;;;;;5054697;28;20042;-81
2022/10/27 09:57:06;;;;;;;6.25;2.92;;;18.40;99.90;;;;;;5048163;28;20045;-81
2022/10/27 09:59:35;;;;;;;3.95;3.05;;;18.40;99.90;;;;;;5057884;28;20044;-83
2022/10/27 10:02:04;;;;;;;4.63;2.63;;;18.40;99.90;;;;;;5055618;28;20084;-85
2022/10/27 10:04:44;;;;;;;7.63;2.72;;;18.50;99.90;;;;;;5058021;28;20126;-84
2022/10/27 10:07:38;;;;;;;5.50;3.03;;;18.50;99.90;;;;;;5052774;28;20047;-85
2022/10/27 10:10:21;;;;;;;5.45;2.80;;;18.50;99.90;;;;;;5042195;28;20041;-85
2022/10/27 10:13:09;;;;;;;3.88;2.53;;;18.60;99.90;;;;;;5040149;28;20406;-85
2022/10/27 10:15:42;;;;;;;3.83;2.30;;;18.60;99.90;;;;;;5051249;28;20053;-89
2022/10/27 10:18:26;;;;;;;7.32;2.58;;;18.60;99.90;;;;;;5044765;28;20066;-88
2022/10/27 10:21:12;;;;;;;4.65;2.85;;;18.70;99.90;;;;;;5042031;28;20049;-77
2022/10/27 10:23:52;;;;;;;7.32;2.55;;;18.80;99.90;;;;;;5040570;28;20582;-85
2022/10/27 10:26:22;;;;;;;5.40;2.20;;;18.90;99.90;;;;;;5052550;28;20063;-88
2022/10/27 10:28:51;;;;;;;4.57;2.08;;;19.00;99.90;;;;;;5047675;28;20479;-86
2022/10/27 10:31:28;;;;;;;3.40;1.80;;;19.10;99.90;;;;;;5042350;28;20057;-86
2022/10/27 10:34:05;;;;;;;1.98;1.75;;;19.10;99.90;;;;;;5046762;28;20056;-89
2022/10/27 10:36:36;;;;;;;4.57;2.20;;;19.10;99.90;;;;;;5045327;28;20067;-84
2022/10/27 10:39:19;;;;;;;10.15;2.45;;;19.20;99.90;;;;;;5054495;28;20053;-84
2022/10/27 10:42:04;;;;;;;;;;;19.20;99.90;;;;;;5056620;28;20055;-84
2022/10/27 10:44:30;;;;;;;2.65;1.75;;;19.30;99.90;;;;;;5043183;28;19930;-84
2022/10/27 10:46:56;;;;;;;3.80;1.92;;;19.30;99.90;;;;;;5048981;28;20041;-85
2022/10/27 10:49:31;;;;;;;2.15;1.55;;;19.40;99.90;;;;;;5051080;28;20092;-85
2022/10/27 10:52:00;;;;;;;5.60;2.00;;;19.40;99.90;;;;;;5055531;28;20064;-84
2022/10/27 10:54:33;;;;;;;3.38;1.73;;;19.50;99.90;;;;;;5051358;28;20044;-84
2022/10/27 10:57:00;;;;;;;3.75;1.63;;;19.50;99.90;;;;;;5040565;28;20072;-84
2022/10/27 10:59:29;;;;;;;2.78;1.70;;;19.50;99.90;;;;;;5052050;28;20588;-83
2022/10/27 11:02:13;;;;;;;2.58;1.40;;;19.50;99.90;;;;;;5051610;28;20071;-82
2022/10/27 11:04:43;;;;;;;4.13;1.95;;;19.50;99.90;;;;;;5040758;28;20123;-84
2022/10/27 11:07:32;;;;;;;3.55;1.45;;;19.60;99.90;;;;;;5037085;28;20041;-85
2022/10/27 11:10:12;;;;;;;3.13;1.42;;;19.70;99.90;;;;;;5046650;28;20106;-84
2022/10/27 11:12:55;;;;;;;3.45;1.67;;;19.70;99.90;;;;;;5043101;28;20048;-82
2022/10/27 11:15:52;;;;;;;5.28;1.70;;;19.90;99.90;;;;;;5050673;28;20056;-81
2022/10/27 11:18:44;;;;;;;6.90;1.50;;;19.90;99.90;;;;;;5038103;28;20107;-82
2022/10/27 11:21:40;;;;;;;3.42;1.52;;;20.00;99.90;;;;;;5030122;28;20063;-81
2022/10/27 11:24:26;;;;;;;4.25;1.20;;;20.00;99.90;;;;;;5048092;28;20092;-83
2022/10/27 11:26:57;;;;;;;3.88;1.40;;;20.00;99.90;;;;;;5047829;28;20061;-83
2022/10/27 11:29:30;;;;;;;4.88;1.80;;;20.20;99.90;;;;;;5042777;28;20102;-85
2022/10/27 11:32:14;;;;;;;;;;;20.30;99.90;;;;;;5044819;28;20044;-83
2022/10/27 11:34:57;;;;;;;3.20;2.03;;;20.30;99.90;;;;;;5058016;28;19925;-84
2022/10/27 11:37:38;;;;;;;2.33;1.65;;;20.30;99.90;;;;;;5045527;28;20170;-82
2022/10/27 11:40:28;;;;;;;5.53;1.60;;;20.30;99.90;;;;;;5040635;28;20046;-82
2022/10/27 11:43:08;;;;;;;3.45;1.50;;;20.30;99.90;;;;;;5051523;28;20059;-83
2022/10/27 11:45:40;;;;;;;3.45;1.70;;;20.20;99.90;;;;;;5046676;28;20045;-83
2022/10/27 11:48:13;;;;;;;2.22;1.23;;;20.10;99.90;;;;;;5056397;28;20095;-83
2022/10/27 11:50:46;;;;;;;6.00;2.28;;;20.00;99.90;;;;;;5045908;28;20566;-81
2022/10/27 11:53:13;;;;;;;3.67;1.67;;;19.90;99.90;;;;;;5058260;28;20044;-82
2022/10/27 11:55:55;;;;;;;2.28;1.45;;;19.90;99.90;;;;;;5057095;28;20117;-82
2022/10/27 11:58:34;;;;;;;4.53;1.60;;;19.90;99.90;;;;;;5049826;28;20140;-80
2022/10/27 12:01:16;;;;;;;2.72;1.52;;;20.00;99.90;;;;;;5057307;28;20052;-82
2022/10/27 12:04:08;;;;;;;2.28;1.65;;;20.00;99.90;;;;;;5049077;28;20077;-82
2022/10/27 12:07:00;;;;;;;5.75;1.95;;;20.10;99.90;;;;;;5040201;28;20162;-81
2022/10/27 12:09:59;;;;;;;3.65;1.70;;;20.10;99.90;;;;;;5041297;28;20080;-84
2022/10/27 12:12:36;;;;;;;5.38;1.95;;;20.10;99.90;;;;;;5046062;28;20044;-79
2022/10/27 12:15:09;;;;;;;2.65;1.40;;;20.10;99.90;;;;;;5043832;28;20084;-81
2022/10/27 12:17:44;;;;;;;3.40;1.90;;;20.20;99.90;;;;;;5044685;28;20074;-82
2022/10/27 12:20:14;;;;;;;3.75;1.55;;;20.20;99.90;;;;;;5044579;28;20449;-82
2022/10/27 12:22:55;;;;;;;2.45;1.75;;;20.30;99.90;;;;;;5043492;28;20047;-83
2022/10/27 12:25:39;;;;;;;2.55;1.88;;;20.20;99.90;;;;;;5044126;28;20064;-81
2022/10/27 12:28:07;;;;;;;3.53;1.80;;;20.20;99.90;;;;;;5047761;28;20049;-82
2022/10/27 12:30:38;;;;;;;4.93;1.88;;;20.20;99.90;;;;;;5040326;28;20091;-82
2022/10/27 12:33:27;;;;;;;2.00;1.58;;;20.10;99.90;;;;;;5047297;28;20053;-81
2022/10/27 12:36:03;;;;;;;2.55;1.88;;;20.10;99.90;;;;;;5040732;28;20037;-83
2022/10/27 12:38:34;;;;;;;5.38;1.60;;;20.00;99.90;;;;;;5046979;28;20222;-81
2022/10/27 12:41:08;;;;;;;6.22;2.88;;;19.90;99.90;;;;;;5042924;28;20040;-80
2022/10/27 12:43:47;;;;;;;4.75;2.10;;;19.80;99.90;;;;;;5047178;28;20101;-78
2022/10/27 12:46:22;;;;;;;1.90;1.58;;;19.70;99.90;;;;;;5047715;28;20056;-81
2022/10/27 12:49:24;;;;;;;2.88;1.83;;;19.70;99.90;;;;;;5054171;28;20146;-82
2022/10/27 12:52:19;;;;;;;4.13;1.80;;;19.60;99.90;;;;;;5045037;28;20048;-81
2022/10/27 12:55:12;;;;;;;6.47;2.75;;;19.60;99.90;;;;;;5039400;28;20126;-82
2022/10/27 12:58:01;;;;;;;2.90;1.80;;;19.60;99.90;;;;;;5053414;28;20048;-81
2022/10/27 13:00:28;;;;;;;3.38;2.00;;;19.70;99.90;;;;;;5041014;28;20055;-82
2022/10/27 13:03:21;;;;;;;5.43;2.60;;;19.70;99.90;;;;;;5058938;28;20075;-81